Terminal Aerodrome Forecast
Issued by NWS Corpus Christi, TX

Home | Current Version | Previous Version | Text Only | Print | Product List | Glossary On
Versions: 1 2 3 4 5 6 7 8 9 10 11 12
647
FTUS44 KCRP 072332
TAFCRP
TAF
KCRP 072332Z 0800/0824 16010KT P6SM SCT250
     FM080600 VRB04KT P6SM FEW250
     FM081000 36011KT P6SM SCT250
     FM081500 01020G28KT P6SM SKC
     FM082100 36014KT P6SM SKC=

USA.gov is the U.S. government's official web portal to all federal, state and local government web resources and services.